sensor_id;sensor_type;location;lat;lon;timestamp;pressure;altitude;pressure_sealevel;temperature;humidity
72370;BME280;60343;-32.030;115.880;2023-04-23T00:00:07;101861.47;;;17.72;58.46
72370;BME280;60343;-32.030;115.880;2023-04-23T00:02:44;101857.03;;;17.86;58.06
72370;BME280;60343;-32.030;115.880;2023-04-23T00:05:26;101863.78;;;17.96;57.16
72370;BME280;60343;-32.030;115.880;2023-04-23T00:08:02;101856.75;;;17.81;55.48
72370;BME280;60343;-32.030;115.880;2023-04-23T00:10:37;101863.97;;;17.52;55.80
72370;BME280;60343;-32.030;115.880;2023-04-23T00:13:12;101862.75;;;17.55;57.11
72370;BME280;60343;-32.030;115.880;2023-04-23T00:15:47;101863.44;;;17.78;55.82
72370;BME280;60343;-32.030;115.880;2023-04-23T00:18:21;101862.22;;;18.58;53.89
72370;BME280;60343;-32.030;115.880;2023-04-23T00:21:01;101852.75;;;19.42;51.56
72370;BME280;60343;-32.030;115.880;2023-04-23T00:23:36;101853.94;;;20.20;49.13
72370;BME280;60343;-32.030;115.880;2023-04-23T00:26:11;101846.31;;;20.81;47.28
72370;BME280;60343;-32.030;115.880;2023-04-23T00:28:46;101845.53;;;21.25;43.49
72370;BME280;60343;-32.030;115.880;2023-04-23T00:31:20;101852.34;;;21.48;43.34
72370;BME280;60343;-32.030;115.880;2023-04-23T00:33:55;101842.03;;;21.81;42.53
72370;BME280;60343;-32.030;115.880;2023-04-23T00:36:35;101847.81;;;21.98;43.29
72370;BME280;60343;-32.030;115.880;2023-04-23T00:39:15;101851.38;;;22.23;42.43
72370;BME280;60343;-32.030;115.880;2023-04-23T00:41:49;101844.88;;;22.42;41.30
72370;BME280;60343;-32.030;115.880;2023-04-23T00:44:24;101842.28;;;22.90;41.05
72370;BME280;60343;-32.030;115.880;2023-04-23T00:46:59;101843.06;;;23.09;39.84
72370;BME280;60343;-32.030;115.880;2023-04-23T00:49:34;101843.22;;;23.44;38.98
72370;BME280;60343;-32.030;115.880;2023-04-23T00:52:15;101829.59;;;23.85;37.87
72370;BME280;60343;-32.030;115.880;2023-04-23T00:54:49;101836.09;;;24.26;37.79
72370;BME280;60343;-32.030;115.880;2023-04-23T00:57:24;101828.69;;;24.61;36.53
72370;BME280;60343;-32.030;115.880;2023-04-23T00:59:59;101824.72;;;24.92;36.22
72370;BME280;60343;-32.030;115.880;2023-04-23T01:02:35;101824.78;;;25.09;34.99
72370;BME280;60343;-32.030;115.880;2023-04-23T01:05:10;101828.31;;;25.21;36.37
72370;BME280;60343;-32.030;115.880;2023-04-23T01:07:50;101826.63;;;25.60;35.86
72370;BME280;60343;-32.030;115.880;2023-04-23T01:10:25;101825.88;;;25.81;34.59
72370;BME280;60343;-32.030;115.880;2023-04-23T01:13:00;101823.97;;;25.82;35.89
72370;BME280;60343;-32.030;115.880;2023-04-23T01:15:34;101829.94;;;26.12;35.21
72370;BME280;60343;-32.030;115.880;2023-04-23T01:18:09;101823.47;;;26.57;35.17
72370;BME280;60343;-32.030;115.880;2023-04-23T01:20:45;101818.41;;;26.87;33.85
72370;BME280;60343;-32.030;115.880;2023-04-23T01:23:25;101820.38;;;27.13;35.11
72370;BME280;60343;-32.030;115.880;2023-04-23T01:26:00;101807.34;;;27.52;33.07
72370;BME280;60343;-32.030;115.880;2023-04-23T01:28:35;101811.47;;;27.28;33.50
72370;BME280;60343;-32.030;115.880;2023-04-23T01:31:10;101802.03;;;27.46;32.34
72370;BME280;60343;-32.030;115.880;2023-04-23T01:33:45;101802.09;;;27.83;33.14
72370;BME280;60343;-32.030;115.880;2023-04-23T01:36:20;101793.31;;;28.17;31.80
72370;BME280;60343;-32.030;115.880;2023-04-23T01:39:01;101782.94;;;28.35;31.09
72370;BME280;60343;-32.030;115.880;2023-04-23T01:41:36;101783.03;;;28.50;31.50
72370;BME280;60343;-32.030;115.880;2023-04-23T01:44:10;101781.13;;;28.55;30.91
72370;BME280;60343;-32.030;115.880;2023-04-23T01:46:45;101775.38;;;28.67;30.37
72370;BME280;60343;-32.030;115.880;2023-04-23T01:49:20;101773.59;;;28.98;29.25
72370;BME280;60343;-32.030;115.880;2023-04-23T01:51:54;101764.00;;;29.16;29.03
72370;BME280;60343;-32.030;115.880;2023-04-23T01:54:34;101769.00;;;29.34;28.71
72370;BME280;60343;-32.030;115.880;2023-04-23T01:57:09;101752.47;;;29.54;27.65
72370;BME280;60343;-32.030;115.880;2023-04-23T01:59:50;101754.13;;;29.70;28.62
72370;BME280;60343;-32.030;115.880;2023-04-23T02:02:24;101760.19;;;30.13;27.41
72370;BME280;60343;-32.030;115.880;2023-04-23T02:05:01;101748.53;;;30.21;26.85
72370;BME280;60343;-32.030;115.880;2023-04-23T02:07:36;101746.00;;;30.40;25.88
72370;BME280;60343;-32.030;115.880;2023-04-23T02:10:16;101738.34;;;30.86;25.84
72370;BME280;60343;-32.030;115.880;2023-04-23T02:12:52;101733.41;;;30.78;23.97
72370;BME280;60343;-32.030;115.880;2023-04-23T02:15:27;101739.38;;;30.95;23.91
72370;BME280;60343;-32.030;115.880;2023-04-23T02:18:01;101738.72;;;30.64;25.49
72370;BME280;60343;-32.030;115.880;2023-04-23T02:20:36;101733.44;;;30.73;25.94
72370;BME280;60343;-32.030;115.880;2023-04-23T02:23:11;101730.09;;;30.76;25.11
72370;BME280;60343;-32.030;115.880;2023-04-23T02:25:51;101732.91;;;30.71;25.50
72370;BME280;60343;-32.030;115.880;2023-04-23T02:28:25;101723.75;;;30.75;25.57
72370;BME280;60343;-32.030;115.880;2023-04-23T02:31:00;101723.22;;;30.73;26.68
72370;BME280;60343;-32.030;115.880;2023-04-23T02:33:35;101725.53;;;31.00;25.74
72370;BME280;60343;-32.030;115.880;2023-04-23T02:36:10;101724.66;;;31.09;26.49
72370;BME280;60343;-32.030;115.880;2023-04-23T02:38:44;101716.78;;;30.88;25.58
72370;BME280;60343;-32.030;115.880;2023-04-23T02:41:24;101716.53;;;30.79;28.23
72370;BME280;60343;-32.030;115.880;2023-04-23T02:43:59;101717.41;;;30.69;28.08
72370;BME280;60343;-32.030;115.880;2023-04-23T02:46:33;101711.66;;;30.61;27.39
72370;BME280;60343;-32.030;115.880;2023-04-23T02:49:08;101712.78;;;30.55;28.17
72370;BME280;60343;-32.030;115.880;2023-04-23T02:51:42;101703.75;;;30.29;28.84
72370;BME280;60343;-32.030;115.880;2023-04-23T02:54:17;101701.06;;;30.04;29.07
72370;BME280;60343;-32.030;115.880;2023-04-23T02:56:57;101691.97;;;29.98;30.85
72370;BME280;60343;-32.030;115.880;2023-04-23T02:59:32;101689.50;;;29.97;29.25
72370;BME280;60343;-32.030;115.880;2023-04-23T03:02:06;101686.44;;;29.98;28.74
72370;BME280;60343;-32.030;115.880;2023-04-23T03:04:41;101683.94;;;30.12;28.03
72370;BME280;60343;-32.030;115.880;2023-04-23T03:07:16;101683.56;;;30.28;28.90
72370;BME280;60343;-32.030;115.880;2023-04-23T03:09:50;101675.22;;;30.44;29.32
72370;BME280;60343;-32.030;115.880;2023-04-23T03:12:30;101677.69;;;30.55;27.43
72370;BME280;60343;-32.030;115.880;2023-04-23T03:15:05;101671.25;;;30.70;27.21
72370;BME280;60343;-32.030;115.880;2023-04-23T03:17:40;101664.50;;;30.86;26.68
72370;BME280;60343;-32.030;115.880;2023-04-23T03:20:14;101660.25;;;31.04;28.25
72370;BME280;60343;-32.030;115.880;2023-04-23T03:22:49;101656.09;;;31.35;28.55
72370;BME280;60343;-32.030;115.880;2023-04-23T03:25:23;101653.34;;;31.64;26.87
72370;BME280;60343;-32.030;115.880;2023-04-23T03:28:04;101645.97;;;31.83;23.87
72370;BME280;60343;-32.030;115.880;2023-04-23T03:30:38;101641.16;;;31.94;25.26
72370;BME280;60343;-32.030;115.880;2023-04-23T03:33:13;101637.84;;;32.16;26.95
72370;BME280;60343;-32.030;115.880;2023-04-23T03:35:47;101643.59;;;31.72;26.39
72370;BME280;60343;-32.030;115.880;2023-04-23T03:38:22;101639.13;;;31.47;27.70
72370;BME280;60343;-32.030;115.880;2023-04-23T03:40:57;101641.47;;;30.96;28.79
72370;BME280;60343;-32.030;115.880;2023-04-23T03:43:37;101641.94;;;30.69;30.84
72370;BME280;60343;-32.030;115.880;2023-04-23T03:46:11;101632.44;;;30.36;31.43
72370;BME280;60343;-32.030;115.880;2023-04-23T03:48:46;101647.75;;;30.03;32.41
72370;BME280;60343;-32.030;115.880;2023-04-23T03:51:20;101639.84;;;29.66;32.15
72370;BME280;60343;-32.030;115.880;2023-04-23T03:53:55;101637.66;;;29.53;31.11
72370;BME280;60343;-32.030;115.880;2023-04-23T03:56:29;101639.63;;;29.32;30.61
72370;BME280;60343;-32.030;115.880;2023-04-23T03:59:09;101631.88;;;29.09;29.70
72370;BME280;60343;-32.030;115.880;2023-04-23T04:01:44;101641.78;;;28.80;30.29
72370;BME280;60343;-32.030;115.880;2023-04-23T04:04:18;101625.50;;;28.73;30.38
72370;BME280;60343;-32.030;115.880;2023-04-23T04:06:53;101617.19;;;28.58;31.19
72370;BME280;60343;-32.030;115.880;2023-04-23T04:09:27;101611.38;;;28.44;31.47
72370;BME280;60343;-32.030;115.880;2023-04-23T04:12:02;101605.34;;;28.63;31.67
72370;BME280;60343;-32.030;115.880;2023-04-23T04:14:42;101601.19;;;28.55;32.06
72370;BME280;60343;-32.030;115.880;2023-04-23T04:17:17;101597.41;;;28.76;30.70
72370;BME280;60343;-32.030;115.880;2023-04-23T04:19:51;101587.47;;;28.80;31.90
72370;BME280;60343;-32.030;115.880;2023-04-23T04:22:26;101598.78;;;28.79;32.36
72370;BME280;60343;-32.030;115.880;2023-04-23T04:25:01;101587.50;;;28.85;32.94
72370;BME280;60343;-32.030;115.880;2023-04-23T04:27:36;101585.81;;;29.15;31.70
72370;BME280;60343;-32.030;115.880;2023-04-23T04:30:16;101580.56;;;29.13;32.38
72370;BME280;60343;-32.030;115.880;2023-04-23T04:32:51;101579.75;;;29.02;32.01
72370;BME280;60343;-32.030;115.880;2023-04-23T04:35:26;101577.53;;;29.15;31.96
72370;BME280;60343;-32.030;115.880;2023-04-23T04:38:00;101581.41;;;29.34;30.35
72370;BME280;60343;-32.030;115.880;2023-04-23T04:40:35;101572.81;;;29.56;31.26
72370;BME280;60343;-32.030;115.880;2023-04-23T04:43:10;101577.56;;;29.35;30.04
72370;BME280;60343;-32.030;115.880;2023-04-23T04:45:50;101565.13;;;29.27;29.93
72370;BME280;60343;-32.030;115.880;2023-04-23T04:48:25;101563.75;;;29.25;29.99
72370;BME280;60343;-32.030;115.880;2023-04-23T04:51:00;101565.16;;;29.22;29.80
72370;BME280;60343;-32.030;115.880;2023-04-23T04:53:34;101560.69;;;29.52;28.80
72370;BME280;60343;-32.030;115.880;2023-04-23T04:56:09;101565.84;;;29.73;28.18
72370;BME280;60343;-32.030;115.880;2023-04-23T04:58:43;101545.09;;;29.86;25.81
72370;BME280;60343;-32.030;115.880;2023-04-23T05:01:24;101538.72;;;29.96;26.22
72370;BME280;60343;-32.030;115.880;2023-04-23T05:03:59;101540.88;;;30.04;26.06
72370;BME280;60343;-32.030;115.880;2023-04-23T05:06:34;101539.25;;;30.03;25.90
72370;BME280;60343;-32.030;115.880;2023-04-23T05:09:08;101533.97;;;30.06;25.99
72370;BME280;60343;-32.030;115.880;2023-04-23T05:11:43;101535.63;;;30.07;26.66
72370;BME280;60343;-32.030;115.880;2023-04-23T05:14:18;101538.16;;;29.99;25.37
72370;BME280;60343;-32.030;115.880;2023-04-23T05:16:58;101528.16;;;30.13;25.39
72370;BME280;60343;-32.030;115.880;2023-04-23T05:19:33;101525.19;;;29.94;26.31
72370;BME280;60343;-32.030;115.880;2023-04-23T05:22:07;101514.03;;;30.14;25.45
72370;BME280;60343;-32.030;115.880;2023-04-23T05:24:42;101519.03;;;30.12;25.56
72370;BME280;60343;-32.030;115.880;2023-04-23T05:27:17;101524.31;;;30.04;27.44
72370;BME280;60343;-32.030;115.880;2023-04-23T05:29:51;101504.66;;;30.15;27.02
72370;BME280;60343;-32.030;115.880;2023-04-23T05:32:32;101495.84;;;30.08;27.68
72370;BME280;60343;-32.030;115.880;2023-04-23T05:35:07;101493.63;;;30.10;28.19
72370;BME280;60343;-32.030;115.880;2023-04-23T05:37:41;101488.97;;;30.06;27.71
72370;BME280;60343;-32.030;115.880;2023-04-23T05:40:16;101487.38;;;29.95;29.22
72370;BME280;60343;-32.030;115.880;2023-04-23T05:42:50;101479.94;;;29.90;29.42
72370;BME280;60343;-32.030;115.880;2023-04-23T05:45:25;101487.72;;;29.73;29.35
72370;BME280;60343;-32.030;115.880;2023-04-23T05:48:05;101479.78;;;29.66;29.23
72370;BME280;60343;-32.030;115.880;2023-04-23T05:50:41;101472.78;;;29.79;29.86
72370;BME280;60343;-32.030;115.880;2023-04-23T05:53:16;101471.84;;;29.45;31.09
72370;BME280;60343;-32.030;115.880;2023-04-23T05:55:50;101468.78;;;29.56;30.91
72370;BME280;60343;-32.030;115.880;2023-04-23T05:58:25;101469.94;;;29.40;32.38
72370;BME280;60343;-32.030;115.880;2023-04-23T06:00:59;101470.59;;;28.96;34.02
72370;BME280;60343;-32.030;115.880;2023-04-23T06:03:39;101467.25;;;29.05;34.54
72370;BME280;60343;-32.030;115.880;2023-04-23T06:06:14;101463.44;;;28.65;35.65
72370;BME280;60343;-32.030;115.880;2023-04-23T06:08:48;101461.22;;;28.57;36.67
72370;BME280;60343;-32.030;115.880;2023-04-23T06:11:23;101458.75;;;28.40;36.34
72370;BME280;60343;-32.030;115.880;2023-04-23T06:13:58;101466.72;;;28.67;37.50
72370;BME280;60343;-32.030;115.880;2023-04-23T06:16:33;101466.19;;;28.40;38.10
72370;BME280;60343;-32.030;115.880;2023-04-23T06:19:13;101459.84;;;28.24;38.43
72370;BME280;60343;-32.030;115.880;2023-04-23T06:21:47;101452.41;;;28.40;38.67
72370;BME280;60343;-32.030;115.880;2023-04-23T06:24:22;101453.50;;;28.49;39.66
72370;BME280;60343;-32.030;115.880;2023-04-23T06:26:56;101451.00;;;28.17;40.97
72370;BME280;60343;-32.030;115.880;2023-04-23T06:29:31;101443.31;;;28.29;41.28
72370;BME280;60343;-32.030;115.880;2023-04-23T06:32:05;101437.00;;;28.44;40.65
72370;BME280;60343;-32.030;115.880;2023-04-23T06:34:46;101445.19;;;28.08;42.00
72370;BME280;60343;-32.030;115.880;2023-04-23T06:37:20;101434.50;;;28.12;42.19
72370;BME280;60343;-32.030;115.880;2023-04-23T06:39:55;101422.34;;;28.03;42.98
72370;BME280;60343;-32.030;115.880;2023-04-23T06:42:29;101422.63;;;28.06;43.16
72370;BME280;60343;-32.030;115.880;2023-04-23T06:45:04;101424.53;;;27.91;44.40
72370;BME280;60343;-32.030;115.880;2023-04-23T06:47:39;101418.72;;;27.82;45.17
72370;BME280;60343;-32.030;115.880;2023-04-23T06:50:21;101417.09;;;27.81;45.97
72370;BME280;60343;-32.030;115.880;2023-04-23T06:52:55;101414.34;;;27.76;45.80
72370;BME280;60343;-32.030;115.880;2023-04-23T06:55:30;101420.41;;;28.03;45.80
72370;BME280;60343;-32.030;115.880;2023-04-23T06:58:04;101418.28;;;28.15;45.47
72370;BME280;60343;-32.030;115.880;2023-04-23T07:00:39;101412.69;;;27.80;46.63
72370;BME280;60343;-32.030;115.880;2023-04-23T07:03:14;101412.41;;;27.97;46.62
72370;BME280;60343;-32.030;115.880;2023-04-23T07:05:54;101408.84;;;27.86;46.75
72370;BME280;60343;-32.030;115.880;2023-04-23T07:08:29;101414.06;;;27.98;47.70
72370;BME280;60343;-32.030;115.880;2023-04-23T07:11:03;101409.66;;;28.07;47.14
72370;BME280;60343;-32.030;115.880;2023-04-23T07:13:38;101411.94;;;28.40;46.31
72370;BME280;60343;-32.030;115.880;2023-04-23T07:16:13;101408.63;;;28.13;47.34
72370;BME280;60343;-32.030;115.880;2023-04-23T07:18:49;101402.53;;;28.11;47.86
72370;BME280;60343;-32.030;115.880;2023-04-23T07:21:29;101412.44;;;28.07;47.12
72370;BME280;60343;-32.030;115.880;2023-04-23T07:24:04;101410.50;;;28.02;47.33
72370;BME280;60343;-32.030;115.880;2023-04-23T07:26:39;101410.78;;;27.96;47.29
72370;BME280;60343;-32.030;115.880;2023-04-23T07:29:13;101412.38;;;27.82;47.77
72370;BME280;60343;-32.030;115.880;2023-04-23T07:31:48;101412.38;;;27.77;49.01
72370;BME280;60343;-32.030;115.880;2023-04-23T07:34:23;101407.69;;;27.72;48.52
72370;BME280;60343;-32.030;115.880;2023-04-23T07:37:03;101414.81;;;27.58;49.26
72370;BME280;60343;-32.030;115.880;2023-04-23T07:39:37;101416.38;;;27.39;49.49
72370;BME280;60343;-32.030;115.880;2023-04-23T07:42:12;101409.41;;;27.11;50.39
72370;BME280;60343;-32.030;115.880;2023-04-23T07:44:46;101408.84;;;27.14;50.42
72370;BME280;60343;-32.030;115.880;2023-04-23T07:47:21;101411.34;;;27.15;50.10
72370;BME280;60343;-32.030;115.880;2023-04-23T07:49:55;101412.28;;;26.89;52.78
72370;BME280;60343;-32.030;115.880;2023-04-23T07:52:36;101412.75;;;26.76;52.23
72370;BME280;60343;-32.030;115.880;2023-04-23T07:55:10;101413.28;;;26.78;52.25
72370;BME280;60343;-32.030;115.880;2023-04-23T07:57:46;101413.19;;;26.63;52.79
72370;BME280;60343;-32.030;115.880;2023-04-23T08:00:21;101417.00;;;26.62;53.10
72370;BME280;60343;-32.030;115.880;2023-04-23T08:02:55;101415.91;;;26.58;53.66
72370;BME280;60343;-32.030;115.880;2023-04-23T08:05:31;101412.59;;;26.56;53.27
72370;BME280;60343;-32.030;115.880;2023-04-23T08:08:13;101415.59;;;26.54;54.04
72370;BME280;60343;-32.030;115.880;2023-04-23T08:10:47;101411.91;;;26.38;54.54
72370;BME280;60343;-32.030;115.880;2023-04-23T08:13:22;101405.38;;;26.44;53.89
72370;BME280;60343;-32.030;115.880;2023-04-23T08:15:56;101417.09;;;26.35;54.08
72370;BME280;60343;-32.030;115.880;2023-04-23T08:18:31;101410.78;;;26.34;54.48
72370;BME280;60343;-32.030;115.880;2023-04-23T08:21:05;101413.38;;;26.19;55.57
72370;BME280;60343;-32.030;115.880;2023-04-23T08:23:46;101408.09;;;26.13;55.74
72370;BME280;60343;-32.030;115.880;2023-04-23T08:26:20;101412.25;;;26.15;55.86
72370;BME280;60343;-32.030;115.880;2023-04-23T08:28:55;101410.94;;;25.96;56.99
72370;BME280;60343;-32.030;115.880;2023-04-23T08:31:29;101406.34;;;25.75;57.29
72370;BME280;60343;-32.030;115.880;2023-04-23T08:34:04;101417.22;;;25.65;57.94
72370;BME280;60343;-32.030;115.880;2023-04-23T08:36:39;101418.59;;;25.45;58.82
72370;BME280;60343;-32.030;115.880;2023-04-23T08:39:19;101422.19;;;25.24;60.47
72370;BME280;60343;-32.030;115.880;2023-04-23T08:41:55;101427.13;;;25.05;61.62
72370;BME280;60343;-32.030;115.880;2023-04-23T08:44:31;101420.75;;;25.00;61.35
72370;BME280;60343;-32.030;115.880;2023-04-23T08:47:07;101421.50;;;24.95;61.44
72370;BME280;60343;-32.030;115.880;2023-04-23T08:49:45;101428.56;;;24.91;61.71
72370;BME280;60343;-32.030;115.880;2023-04-23T08:52:30;101437.50;;;24.87;62.50
72370;BME280;60343;-32.030;115.880;2023-04-23T08:55:12;101435.28;;;24.84;62.94
72370;BME280;60343;-32.030;115.880;2023-04-23T08:57:48;101436.59;;;24.81;62.65
72370;BME280;60343;-32.030;115.880;2023-04-23T09:00:22;101430.13;;;24.70;63.48
72370;BME280;60343;-32.030;115.880;2023-04-23T09:02:57;101423.94;;;24.58;64.20
72370;BME280;60343;-32.030;115.880;2023-04-23T09:05:32;101424.34;;;24.50;64.21
72370;BME280;60343;-32.030;115.880;2023-04-23T09:08:07;101431.22;;;24.36;65.46
72370;BME280;60343;-32.030;115.880;2023-04-23T09:10:49;101432.22;;;24.30;65.02
72370;BME280;60343;-32.030;115.880;2023-04-23T09:13:25;101429.91;;;24.22;65.29
72370;BME280;60343;-32.030;115.880;2023-04-23T09:15:59;101432.47;;;24.00;66.03
72370;BME280;60343;-32.030;115.880;2023-04-23T09:18:34;101423.75;;;23.86;66.63
72370;BME280;60343;-32.030;115.880;2023-04-23T09:21:09;101415.59;;;23.75;67.30
72370;BME280;60343;-32.030;115.880;2023-04-23T09:23:44;101411.38;;;23.67;67.23
72370;BME280;60343;-32.030;115.880;2023-04-23T09:26:25;101419.47;;;23.62;67.90
72370;BME280;60343;-32.030;115.880;2023-04-23T09:29:00;101416.31;;;23.54;68.05
72370;BME280;60343;-32.030;115.880;2023-04-23T09:31:34;101414.03;;;23.39;68.77
72370;BME280;60343;-32.030;115.880;2023-04-23T09:34:09;101414.81;;;23.23;69.46
72370;BME280;60343;-32.030;115.880;2023-04-23T09:36:44;101414.59;;;23.13;69.21
72370;BME280;60343;-32.030;115.880;2023-04-23T09:39:20;101416.84;;;23.04;69.79
72370;BME280;60343;-32.030;115.880;2023-04-23T09:42:03;101412.97;;;22.88;69.79
72370;BME280;60343;-32.030;115.880;2023-04-23T09:44:40;101415.22;;;22.80;69.96
72370;BME280;60343;-32.030;115.880;2023-04-23T09:47:14;101420.66;;;22.68;70.41
72370;BME280;60343;-32.030;115.880;2023-04-23T09:49:49;101410.56;;;22.57;70.65
72370;BME280;60343;-32.030;115.880;2023-04-23T09:52:23;101413.75;;;22.54;71.51
72370;BME280;60343;-32.030;115.880;2023-04-23T09:54:59;101409.72;;;22.45;71.39
72370;BME280;60343;-32.030;115.880;2023-04-23T09:57:42;101408.53;;;22.41;72.31
72370;BME280;60343;-32.030;115.880;2023-04-23T10:00:18;101413.25;;;22.34;72.16
72370;BME280;60343;-32.030;115.880;2023-04-23T10:02:59;101428.78;;;22.21;72.14
72370;BME280;60343;-32.030;115.880;2023-04-23T10:05:38;101433.63;;;22.08;72.91
72370;BME280;60343;-32.030;115.880;2023-04-23T10:08:14;101427.50;;;21.94;73.30
72370;BME280;60343;-32.030;115.880;2023-04-23T10:10:49;101433.84;;;21.88;73.87
72370;BME280;60343;-32.030;115.880;2023-04-23T10:13:29;101434.13;;;21.87;74.25
72370;BME280;60343;-32.030;115.880;2023-04-23T10:16:04;101431.38;;;21.87;75.14
72370;BME280;60343;-32.030;115.880;2023-04-23T10:18:40;101439.31;;;21.88;75.31
72370;BME280;60343;-32.030;115.880;2023-04-23T10:21:14;101436.59;;;21.88;75.00
72370;BME280;60343;-32.030;115.880;2023-04-23T10:23:51;101434.34;;;21.85;75.85
72370;BME280;60343;-32.030;115.880;2023-04-23T10:26:25;101438.22;;;21.77;75.30
72370;BME280;60343;-32.030;115.880;2023-04-23T10:29:08;101445.03;;;21.68;76.65
72370;BME280;60343;-32.030;115.880;2023-04-23T10:31:47;101442.16;;;21.63;75.94
72370;BME280;60343;-32.030;115.880;2023-04-23T10:34:24;101439.78;;;21.55;75.80
72370;BME280;60343;-32.030;115.880;2023-04-23T10:37:00;101445.28;;;21.49;76.66
72370;BME280;60343;-32.030;115.880;2023-04-23T10:39:35;101431.53;;;21.44;76.53
72370;BME280;60343;-32.030;115.880;2023-04-23T10:42:10;101433.28;;;21.38;77.24
72370;BME280;60343;-32.030;115.880;2023-04-23T10:44:56;101430.50;;;21.26;77.63
72370;BME280;60343;-32.030;115.880;2023-04-23T10:47:31;101423.09;;;21.15;78.12
72370;BME280;60343;-32.030;115.880;2023-04-23T10:50:19;101423.56;;;21.06;78.67
72370;BME280;60343;-32.030;115.880;2023-04-23T10:52:56;101422.44;;;20.95;78.78
72370;BME280;60343;-32.030;115.880;2023-04-23T10:55:31;101420.81;;;20.87;78.90
72370;BME280;60343;-32.030;115.880;2023-04-23T10:58:06;101430.13;;;20.80;79.09
72370;BME280;60343;-32.030;115.880;2023-04-23T11:00:50;101425.81;;;20.72;79.52
72370;BME280;60343;-32.030;115.880;2023-04-23T11:03:30;101429.03;;;20.63;79.72
72370;BME280;60343;-32.030;115.880;2023-04-23T11:06:07;101427.44;;;20.55;79.76
72370;BME280;60343;-32.030;115.880;2023-04-23T11:08:51;101419.94;;;20.50;80.10
72370;BME280;60343;-32.030;115.880;2023-04-23T11:11:39;101412.88;;;20.43;80.56
72370;BME280;60343;-32.030;115.880;2023-04-23T11:14:13;101417.16;;;20.32;80.51
72370;BME280;60343;-32.030;115.880;2023-04-23T11:16:54;101416.19;;;20.20;80.92
72370;BME280;60343;-32.030;115.880;2023-04-23T11:19:29;101425.66;;;20.11;81.45
72370;BME280;60343;-32.030;115.880;2023-04-23T11:22:05;101420.72;;;20.01;81.62
72370;BME280;60343;-32.030;115.880;2023-04-23T11:24:41;101437.06;;;19.95;81.43
72370;BME280;60343;-32.030;115.880;2023-04-23T11:27:18;101437.09;;;19.88;82.12
72370;BME280;60343;-32.030;115.880;2023-04-23T11:29:53;101435.22;;;19.82;81.85
72370;BME280;60343;-32.030;115.880;2023-04-23T11:32:33;101437.19;;;19.75;82.38
72370;BME280;60343;-32.030;115.880;2023-04-23T11:35:09;101423.41;;;19.70;82.66
72370;BME280;60343;-32.030;115.880;2023-04-23T11:37:46;101421.75;;;19.62;83.11
72370;BME280;60343;-32.030;115.880;2023-04-23T11:40:21;101411.78;;;19.56;83.05
72370;BME280;60343;-32.030;115.880;2023-04-23T11:42:57;101415.13;;;19.52;83.41
72370;BME280;60343;-32.030;115.880;2023-04-23T11:45:32;101418.50;;;19.47;83.13
72370;BME280;60343;-32.030;115.880;2023-04-23T11:48:12;101423.09;;;19.47;83.22
72370;BME280;60343;-32.030;115.880;2023-04-23T11:50:46;101413.06;;;19.47;83.71
72370;BME280;60343;-32.030;115.880;2023-04-23T11:53:21;101408.06;;;19.44;83.92
72370;BME280;60343;-32.030;115.880;2023-04-23T11:55:56;101408.69;;;19.40;84.39
72370;BME280;60343;-32.030;115.880;2023-04-23T11:58:31;101413.72;;;19.36;84.15
72370;BME280;60343;-32.030;115.880;2023-04-23T12:01:07;101410.81;;;19.31;84.40
72370;BME280;60343;-32.030;115.880;2023-04-23T12:03:48;101406.63;;;19.28;84.02
72370;BME280;60343;-32.030;115.880;2023-04-23T12:06:22;101407.69;;;19.27;84.19
72370;BME280;60343;-32.030;115.880;2023-04-23T12:08:57;101408.13;;;19.24;84.81
72370;BME280;60343;-32.030;115.880;2023-04-23T12:11:31;101411.69;;;19.25;85.30
72370;BME280;60343;-32.030;115.880;2023-04-23T12:14:07;101410.63;;;19.26;85.16
72370;BME280;60343;-32.030;115.880;2023-04-23T12:16:53;101407.09;;;19.25;85.38
72370;BME280;60343;-32.030;115.880;2023-04-23T12:19:43;101415.00;;;19.27;84.91
72370;BME280;60343;-32.030;115.880;2023-04-23T12:22:17;101424.59;;;19.29;86.04
72370;BME280;60343;-32.030;115.880;2023-04-23T12:25:03;101426.03;;;19.32;86.38
72370;BME280;60343;-32.030;115.880;2023-04-23T12:27:40;101413.94;;;19.35;85.77
72370;BME280;60343;-32.030;115.880;2023-04-23T12:30:15;101404.09;;;19.40;85.90
72370;BME280;60343;-32.030;115.880;2023-04-23T12:32:50;101399.06;;;19.44;86.42
72370;BME280;60343;-32.030;115.880;2023-04-23T12:35:37;101402.63;;;19.44;86.59
72370;BME280;60343;-32.030;115.880;2023-04-23T12:38:22;101404.72;;;19.49;87.09
72370;BME280;60343;-32.030;115.880;2023-04-23T12:40:58;101397.59;;;19.48;87.06
72370;BME280;60343;-32.030;115.880;2023-04-23T12:43:33;101400.28;;;19.54;86.63
72370;BME280;60343;-32.030;115.880;2023-04-23T12:46:07;101395.03;;;19.59;88.97
72370;BME280;60343;-32.030;115.880;2023-04-23T12:48:42;101404.25;;;19.58;88.04
72370;BME280;60343;-32.030;115.880;2023-04-23T12:51:22;101404.44;;;19.57;88.27
72370;BME280;60343;-32.030;115.880;2023-04-23T12:53:57;101405.28;;;19.57;88.06
72370;BME280;60343;-32.030;115.880;2023-04-23T12:56:31;101408.41;;;19.61;88.50
72370;BME280;60343;-32.030;115.880;2023-04-23T12:59:06;101402.16;;;19.60;88.16
72370;BME280;60343;-32.030;115.880;2023-04-23T13:01:40;101389.63;;;19.59;87.73
72370;BME280;60343;-32.030;115.880;2023-04-23T13:04:15;101380.84;;;19.57;87.54